»·PEaware :: RNGR803 KNGP-KNGP

RNGR803 :: KNGP-KNGP

FLIGHT INFORMATION

Flight Status: Arrived
Operator: Unknown
More flights by this operator :: More flights under this callsign
Pilot: USN Avenger (31125)
Aircraft: BEECH AIRCRAFT T-6A TEXAN
(TEX2)
More flights by this aircraft type
Origin: KNGP Corpus Christi NAS/Truax
United States
Destination: KNGP Corpus Christi NAS/Truax
United States
More flights between these airports :: More routes between these airports
Route: KNGT KTFP
File this flight plan on PilotEdge
Remarks:
Altitude:
(Current/Filed)
4,500ft
Speed:
(Current/Filed)
240kts
Departed: 16-Nov-23 06:44 AM
Arrived: 16-Nov-23 07:48 AM
Distance/Time
Traveled:
0nm/1:04
Distance/Time
To Go:
Arrived

Flight Plot

Page will automatically refresh every two minutes.

Flight plan parsing failed; only flown route is shown


Map Options




Map Legend


Flown Route
Filed Route
Departure Airport
Arrival Airport
Navaid (VOR, NDB)
Fix

Horizontal Profiles

Position Reports

Time Latitude Longitude Heading Altitude Ground
Speed
16-Nov-23 06:25 27.698549 -97.284287 0 22ft 0kts
16-Nov-23 06:26 27.698548 -97.284287 159 22ft 0kts
16-Nov-23 06:27 27.698546 -97.284286 159 22ft 0kts
16-Nov-23 06:28 27.698544 -97.284285 159 22ft 0kts
16-Nov-23 06:29 27.698541 -97.284284 159 22ft 0kts
16-Nov-23 06:30 27.698539 -97.284283 159 22ft 0kts
16-Nov-23 06:31 27.698537 -97.284282 159 22ft 0kts
16-Nov-23 06:32 27.698535 -97.284281 159 22ft 0kts
16-Nov-23 06:33 27.698533 -97.284280 159 22ft 0kts
16-Nov-23 06:34 27.698531 -97.284280 159 22ft 0kts
16-Nov-23 06:35 27.698529 -97.284279 159 22ft 0kts
16-Nov-23 06:36 27.698527 -97.284278 159 22ft 0kts
16-Nov-23 06:37 27.698525 -97.284277 159 22ft 0kts
16-Nov-23 06:38 27.698523 -97.284276 159 22ft 0kts
16-Nov-23 06:39 27.698521 -97.284275 159 22ft 0kts
16-Nov-23 06:41 27.698202 -97.285346 289 22ft 8kts
16-Nov-23 06:42 27.697428 -97.288778 224 22ft 23kts
16-Nov-23 06:43 27.695017 -97.291390 177 22ft 10kts
16-Nov-23 06:44 27.686099 -97.281409 132 231ft 132kts
16-Nov-23 06:45 27.651870 -97.238659 125 713ft 221kts
16-Nov-23 06:46 27.687344 -97.220655 345 3498ft 185kts
16-Nov-23 06:47 27.738077 -97.232065 349 5622ft 212kts
16-Nov-23 06:48 27.804687 -97.245073 350 5686ft 251kts
16-Nov-23 06:49 27.873534 -97.257176 352 5666ft 249kts
16-Nov-23 06:50 27.941772 -97.249918 12 5657ft 249kts
16-Nov-23 06:51 28.011214 -97.237268 6 5616ft 253kts
16-Nov-23 06:52 28.080818 -97.238294 335 5625ft 255kts
16-Nov-23 06:53 28.140691 -97.281020 326 5750ft 254kts
16-Nov-23 06:54 28.200746 -97.324840 328 5675ft 255kts
16-Nov-23 06:55 28.262574 -97.364560 328 5693ft 254kts
16-Nov-23 06:56 28.322988 -97.407350 327 5674ft 256kts
16-Nov-23 06:57 28.382876 -97.450700 328 5684ft 256kts
16-Nov-23 06:58 28.443075 -97.494301 327 5647ft 257kts
16-Nov-23 06:59 28.503498 -97.537785 328 5599ft 258kts
16-Nov-23 07:00 28.564597 -97.580926 325 5560ft 255kts
16-Nov-23 07:01 28.620493 -97.559369 91 5617ft 250kts
16-Nov-23 07:02 28.565828 -97.516022 173 5517ft 264kts
16-Nov-23 07:03 28.502907 -97.552611 215 4905ft 250kts
16-Nov-23 07:04 28.444102 -97.598074 212 3151ft 265kts
16-Nov-23 07:05 28.394731 -97.652454 242 1329ft 231kts
16-Nov-23 07:06 28.365304 -97.670012 119 1379ft 186kts
16-Nov-23 07:07 28.357431 -97.629205 356 1322ft 115kts
16-Nov-23 07:08 28.381608 -97.658342 312 1140ft 132kts
16-Nov-23 07:09 28.370963 -97.671563 131 255ft 105kts
16-Nov-23 07:10 28.349439 -97.645101 100 854ft 111kts
16-Nov-23 07:11 28.373287 -97.657322 313 1055ft 129kts
16-Nov-23 07:11 28.373204 -97.676940 129 525ft 103kts
16-Nov-23 07:12 28.353411 -97.652035 131 533ft 122kts
16-Nov-23 07:13 28.368557 -97.654093 314 1172ft 131kts
16-Nov-23 07:15 28.370499 -97.671007 132 245ft 103kts
16-Nov-23 07:16 28.347315 -97.644937 127 1196ft 138kts
16-Nov-23 07:16 28.325405 -97.610448 113 2992ft 181kts
16-Nov-23 07:17 28.311756 -97.540486 103 2662ft 253kts
16-Nov-23 07:18 28.293780 -97.465113 106 2589ft 235kts
16-Nov-23 07:19 28.270553 -97.396035 113 2529ft 233kts
16-Nov-23 07:21 28.224211 -97.333201 170 2547ft 239kts
16-Nov-23 07:22 28.157576 -97.337440 176 2587ft 240kts
16-Nov-23 07:22 28.102015 -97.330322 171 2486ft 242kts
16-Nov-23 07:23 28.039693 -97.320982 165 1488ft 196kts
16-Nov-23 07:24 27.993936 -97.298618 139 1566ft 184kts
16-Nov-23 07:25 27.955570 -97.257916 133 1721ft 193kts
16-Nov-23 07:26 27.916618 -97.214343 137 1019ft 195kts
16-Nov-23 07:27 27.900633 -97.180321 335 1021ft 128kts
16-Nov-23 07:28 27.925943 -97.211610 317 916ft 139kts
16-Nov-23 07:29 27.916194 -97.214364 140 36ft 105kts
16-Nov-23 07:30 27.905243 -97.189659 347 968ft 120kts
16-Nov-23 07:31 27.934575 -97.217909 307 967ft 135kts
16-Nov-23 07:32 27.917759 -97.216010 136 24ft 94kts
16-Nov-23 07:34 27.908301 -97.191800 323 907ft 135kts
16-Nov-23 07:34 27.932353 -97.217916 344 932ft 150kts
16-Nov-23 07:35 27.990555 -97.223821 2 1167ft 250kts
16-Nov-23 07:36 28.043085 -97.197198 113 1335ft 226kts
16-Nov-23 07:37 27.984155 -97.168467 149 1135ft 240kts
16-Nov-23 07:38 27.926913 -97.132258 149 1082ft 232kts
16-Nov-23 07:39 27.866433 -97.123342 202 1102ft 244kts
16-Nov-23 07:40 27.803714 -97.154407 200 1122ft 247kts
16-Nov-23 07:41 27.746040 -97.191128 238 1031ft 229kts
16-Nov-23 07:42 27.733015 -97.257556 257 1094ft 211kts
16-Nov-23 07:43 27.709556 -97.310374 163 1247ft 191kts
16-Nov-23 07:44 27.668286 -97.289395 232 1047ft 137kts
16-Nov-23 07:45 27.686272 -97.321149 337 1046ft 127kts
16-Nov-23 07:46 27.703100 -97.305352 112 213ft 105kts
16-Nov-23 07:47 27.694218 -97.292418 46 22ft 0kts

Navigation Log

Ident Type
Flight plan parsing failed, navigation log unavailable